Time;durP1;ratioP1;P1;durP2;ratioP2;P2;SDS_P1;SDS_P2;PMS_P1;PMS_P2;Temp;Humidity;BMP_temperature;BMP_pressure;BME280_temperature;BME280_humidity;BME280_pressure;Samples;Min_cycle;Max_cycle;Signal;HPM_P1;HPM_P2
2023/09/09 00:00:09;;;;;;;11.90;6.93;;;27.00;55.60;;;;;;352390;28;1326;-57
2023/09/09 00:00:20;;;;;;;12.98;7.05;;;27.00;55.80;;;;;;352348;28;1197;-55
2023/09/09 00:00:31;;;;;;;13.93;7.15;;;27.00;56.10;;;;;;352312;28;992;-56
2023/09/09 00:00:43;;;;;;;14.10;7.53;;;27.00;56.60;;;;;;352429;28;895;-56
2023/09/09 00:00:54;;;;;;;13.55;7.72;;;27.00;57.00;;;;;;352417;28;1185;-56
2023/09/09 00:01:06;;;;;;;12.30;7.43;;;27.00;57.20;;;;;;352370;28;861;-57
2023/09/09 00:01:16;;;;;;;11.10;6.97;;;27.00;57.40;;;;;;352384;28;893;-55
2023/09/09 00:01:27;;;;;;;11.52;6.90;;;27.00;57.50;;;;;;352323;28;1031;-57
2023/09/09 00:01:38;;;;;;;12.35;6.75;;;27.00;57.80;;;;;;352385;28;1253;-55
2023/09/09 00:01:48;;;;;;;13.47;6.87;;;27.00;58.00;;;;;;352444;28;963;-55
2023/09/09 00:01:59;;;;;;;13.07;6.88;;;27.00;58.00;;;;;;352355;28;924;-55
2023/09/09 00:02:10;;;;;;;14.10;6.95;;;27.00;58.10;;;;;;352427;28;813;-56
2023/09/09 00:02:20;;;;;;;13.17;6.70;;;27.00;58.20;;;;;;352399;28;1007;-56
2023/09/09 00:02:31;;;;;;;12.88;6.72;;;27.00;58.20;;;;;;352287;28;1161;-55
2023/09/09 00:02:42;;;;;;;13.05;6.63;;;27.00;58.20;;;;;;352415;28;875;-56
2023/09/09 00:02:52;;;;;;;12.83;6.57;;;27.00;58.20;;;;;;352445;28;868;-56
2023/09/09 00:03:03;;;;;;;12.50;6.20;;;27.10;58.10;;;;;;352257;28;987;-56
2023/09/09 00:03:14;;;;;;;11.18;6.25;;;27.00;58.10;;;;;;352405;28;1007;-56
2023/09/09 00:03:25;;;;;;;11.02;6.20;;;27.00;58.10;;;;;;352367;28;1027;-57
2023/09/09 00:03:36;;;;;;;11.35;6.18;;;27.00;58.00;;;;;;352316;28;1062;-55
2023/09/09 00:03:48;;;;;;;12.00;6.10;;;27.00;57.90;;;;;;352393;28;999;-57
2023/09/09 00:03:59;;;;;;;12.45;6.25;;;27.00;57.80;;;;;;352407;28;927;-56
2023/09/09 00:04:10;;;;;;;12.43;6.50;;;27.00;57.90;;;;;;352373;28;1082;-56
2023/09/09 00:04:21;;;;;;;13.55;6.60;;;27.00;57.80;;;;;;352374;28;959;-56
2023/09/09 00:04:31;;;;;;;12.20;6.70;;;27.00;57.80;;;;;;352423;28;1035;-55
2023/09/09 00:04:42;;;;;;;11.60;6.43;;;27.00;57.70;;;;;;352344;28;1102;-56
2023/09/09 00:04:54;;;;;;;11.70;6.10;;;27.00;57.70;;;;;;352412;28;1165;-56
2023/09/09 00:05:05;;;;;;;11.23;5.72;;;27.00;57.60;;;;;;352438;28;983;-56
2023/09/09 00:05:15;;;;;;;10.63;5.78;;;27.00;57.50;;;;;;352356;28;1046;-56
2023/09/09 00:05:29;;;;;;;9.93;5.77;;;27.00;57.40;;;;;;352434;28;971;-56
2023/09/09 00:05:40;;;;;;;11.60;5.90;;;27.00;57.30;;;;;;352349;28;1193;-56
2023/09/09 00:05:51;;;;;;;11.35;5.78;;;27.00;57.30;;;;;;352312;28;921;-56
2023/09/09 00:06:11;;;;;;;13.60;5.78;;;27.10;57.20;;;;;;352352;28;1559;-56
2023/09/09 00:06:22;;;;;;;11.55;5.75;;;27.00;57.10;;;;;;352289;28;1114;-55
2023/09/09 00:06:33;;;;;;;13.07;6.03;;;27.00;57.10;;;;;;352359;28;1083;-56
2023/09/09 00:06:44;;;;;;;14.63;6.10;;;27.00;57.10;;;;;;352355;28;1163;-55
2023/09/09 00:06:56;;;;;;;14.50;6.13;;;27.00;57.00;;;;;;352319;28;1040;-56
2023/09/09 00:07:06;;;;;;;11.20;6.15;;;27.00;57.00;;;;;;352429;28;1023;-55
2023/09/09 00:07:17;;;;;;;11.65;6.25;;;27.00;56.90;;;;;;352382;28;1141;-56
2023/09/09 00:07:28;;;;;;;12.37;6.20;;;27.00;57.00;;;;;;352296;28;1039;-55
2023/09/09 00:07:38;;;;;;;11.73;6.00;;;27.00;57.00;;;;;;352434;28;1535;-56
2023/09/09 00:07:50;;;;;;;11.38;5.95;;;27.00;57.00;;;;;;352421;28;837;-56
2023/09/09 00:08:02;;;;;;;10.52;6.28;;;27.00;57.10;;;;;;352336;28;1080;-56
2023/09/09 00:08:12;;;;;;;11.27;6.75;;;26.90;57.20;;;;;;352439;28;1939;-55
2023/09/09 00:08:24;;;;;;;10.93;6.63;;;27.00;57.30;;;;;;352389;28;1086;-56
2023/09/09 00:08:34;;;;;;;10.05;6.30;;;27.00;57.20;;;;;;352283;28;995;-55
2023/09/09 00:08:45;;;;;;;9.55;6.00;;;27.00;57.00;;;;;;352339;28;1102;-56
2023/09/09 00:08:56;;;;;;;10.87;6.23;;;27.00;57.00;;;;;;352315;28;1040;-56
2023/09/09 00:09:07;;;;;;;10.60;6.05;;;27.00;56.90;;;;;;352284;28;1062;-56
2023/09/09 00:09:17;;;;;;;10.30;5.90;;;27.00;56.90;;;;;;352451;28;820;-56
2023/09/09 00:09:31;;;;;;;9.20;5.72;;;27.00;56.80;;;;;;352365;28;1074;-56
2023/09/09 00:09:43;;;;;;;11.27;6.10;;;27.00;56.80;;;;;;352351;28;1078;-57
2023/09/09 00:09:54;;;;;;;12.57;6.63;;;27.00;56.60;;;;;;352367;28;1575;-56
2023/09/09 00:10:05;;;;;;;11.73;6.85;;;27.00;56.30;;;;;;352366;28;995;-56
2023/09/09 00:10:15;;;;;;;11.40;7.07;;;27.00;56.00;;;;;;352313;28;1023;-56
2023/09/09 00:10:26;;;;;;;12.25;7.53;;;27.00;56.10;;;;;;352452;28;1062;-55
2023/09/09 00:10:38;;;;;;;14.10;8.45;;;27.00;56.10;;;;;;352359;28;1157;-56
2023/09/09 00:10:49;;;;;;;14.68;8.52;;;27.00;56.20;;;;;;352356;28;900;-56
2023/09/09 00:10:59;;;;;;;13.57;8.60;;;26.90;56.30;;;;;;352383;28;971;-56
2023/09/09 00:11:10;;;;;;;14.32;8.85;;;27.00;56.30;;;;;;352433;28;864;-56
2023/09/09 00:11:21;;;;;;;15.57;9.13;;;27.00;56.40;;;;;;352307;28;1007;-56
2023/09/09 00:11:32;;;;;;;16.90;8.97;;;27.00;56.70;;;;;;352386;28;1007;-57
2023/09/09 00:11:43;;;;;;;18.13;8.65;;;27.00;56.90;;;;;;352359;28;929;-56
2023/09/09 00:11:53;;;;;;;15.63;8.53;;;27.00;57.10;;;;;;352282;28;904;-56
2023/09/09 00:12:04;;;;;;;14.20;8.57;;;26.90;57.10;;;;;;352448;28;870;-56
2023/09/09 00:12:15;;;;;;;15.40;8.32;;;27.00;57.40;;;;;;352367;28;1002;-57
2023/09/09 00:12:26;;;;;;;15.32;7.88;;;27.00;57.60;;;;;;352414;28;1003;-56
2023/09/09 00:12:37;;;;;;;15.90;7.70;;;27.00;57.60;;;;;;352350;28;1027;-55
2023/09/09 00:12:47;;;;;;;14.60;7.50;;;27.00;57.60;;;;;;352435;28;959;-56
2023/09/09 00:12:58;;;;;;;15.00;7.57;;;27.00;57.60;;;;;;352281;28;1385;-56
2023/09/09 00:13:09;;;;;;;13.13;7.05;;;27.00;57.50;;;;;;352350;28;1095;-56
2023/09/09 00:13:20;;;;;;;11.45;6.50;;;27.00;57.50;;;;;;352318;28;1096;-56
2023/09/09 00:13:30;;;;;;;10.00;6.20;;;27.00;57.50;;;;;;352463;28;817;-56
2023/09/09 00:13:41;;;;;;;10.13;6.20;;;26.90;57.20;;;;;;352366;28;1079;-56
2023/09/09 00:13:52;;;;;;;10.07;5.97;;;27.00;57.00;;;;;;352411;28;923;-55
2023/09/09 00:14:03;;;;;;;10.00;5.80;;;27.00;56.60;;;;;;352298;28;1225;-56
2023/09/09 00:14:13;;;;;;;10.88;5.60;;;27.00;56.50;;;;;;352472;28;1027;-56
2023/09/09 00:14:25;;;;;;;12.77;6.00;;;27.00;56.20;;;;;;352391;28;971;-56
2023/09/09 00:14:37;;;;;;;13.25;6.00;;;27.00;56.10;;;;;;352385;28;1236;-56
2023/09/09 00:14:47;;;;;;;12.50;5.88;;;27.00;56.10;;;;;;352323;28;1110;-55
2023/09/09 00:14:58;;;;;;;13.30;5.80;;;27.00;56.00;;;;;;352606;28;1399;-56
2023/09/09 00:15:09;;;;;;;14.40;5.80;;;27.00;56.00;;;;;;352656;28;1153;-56
2023/09/09 00:15:20;;;;;;;14.18;5.97;;;27.00;55.90;;;;;;352698;28;987;-56
2023/09/09 00:15:34;;;;;;;12.65;5.85;;;27.00;56.00;;;;;;352602;28;1078;-56
2023/09/09 00:15:45;;;;;;;13.07;6.20;;;27.00;56.00;;;;;;352653;28;1914;-55
2023/09/09 00:15:56;;;;;;;13.05;5.95;;;27.00;56.20;;;;;;352693;28;2335;-56
2023/09/09 00:16:07;;;;;;;11.80;6.07;;;27.00;56.10;;;;;;352601;28;1016;-55
2023/09/09 00:16:17;;;;;;;13.35;6.35;;;27.00;56.20;;;;;;352712;28;1106;-57
2023/09/09 00:16:34;;;;;;;13.02;6.70;;;27.00;56.30;;;;;;352621;28;1344;-56
2023/09/09 00:16:45;;;;;;;13.10;6.80;;;26.90;56.50;;;;;;352622;28;1003;-56
2023/09/09 00:16:57;;;;;;;12.77;6.53;;;27.00;56.50;;;;;;352710;28;943;-56
2023/09/09 00:17:08;;;;;;;12.82;6.75;;;26.90;56.60;;;;;;352753;28;920;-56
2023/09/09 00:17:18;;;;;;;12.88;6.78;;;27.00;56.80;;;;;;352677;28;1042;-55
2023/09/09 00:17:29;;;;;;;12.43;6.95;;;27.00;57.00;;;;;;352640;28;1018;-56
2023/09/09 00:17:40;;;;;;;13.03;7.00;;;27.00;57.20;;;;;;352642;28;1452;-55
2023/09/09 00:17:51;;;;;;;11.95;6.88;;;26.90;57.30;;;;;;352729;28;1015;-57
2023/09/09 00:18:02;;;;;;;12.60;6.90;;;27.00;57.30;;;;;;352693;28;1052;-55
2023/09/09 00:18:13;;;;;;;13.05;6.95;;;27.00;57.40;;;;;;352590;28;1488;-56
2023/09/09 00:18:24;;;;;;;14.43;7.45;;;27.00;57.50;;;;;;352524;28;1411;-55
2023/09/09 00:18:34;;;;;;;13.55;7.00;;;27.00;57.40;;;;;;352663;28;933;-55
2023/09/09 00:18:45;;;;;;;12.88;6.68;;;27.00;57.20;;;;;;352709;28;979;-57
2023/09/09 00:18:56;;;;;;;11.60;6.07;;;27.00;57.20;;;;;;352634;28;1019;-56
2023/09/09 00:19:07;;;;;;;10.90;5.82;;;27.00;57.30;;;;;;352709;28;919;-56
2023/09/09 00:19:21;;;;;;;9.93;5.78;;;27.00;57.40;;;;;;352562;28;1599;-56
2023/09/09 00:19:34;;;;;;;11.45;6.13;;;27.00;57.40;;;;;;352708;28;873;-56
2023/09/09 00:19:44;;;;;;;11.60;6.63;;;27.00;57.50;;;;;;352614;28;1214;-56
2023/09/09 00:19:55;;;;;;;11.70;6.40;;;27.00;57.60;;;;;;352679;28;1282;-56
2023/09/09 00:20:09;;;;;;;9.57;6.32;;;27.00;57.60;;;;;;352560;28;1118;-57
2023/09/09 00:20:39;;;;;;;9.25;6.10;;;27.00;57.60;;;;;;352722;28;1042;-56
2023/09/09 00:20:49;;;;;;;10.18;6.68;;;27.00;57.80;;;;;;352668;28;999;-55
2023/09/09 00:21:00;;;;;;;12.07;6.68;;;27.00;57.90;;;;;;352635;28;1015;-58
2023/09/09 00:21:11;;;;;;;13.95;6.93;;;27.00;58.00;;;;;;352670;27;1541;-56
2023/09/09 00:21:21;;;;;;;14.67;6.87;;;27.00;58.10;;;;;;352639;28;1065;-56
2023/09/09 00:21:32;;;;;;;12.98;6.90;;;27.00;58.10;;;;;;352641;28;1170;-56
2023/09/09 00:21:45;;;;;;;12.15;6.50;;;27.00;58.20;;;;;;352643;28;1042;-56
2023/09/09 00:21:55;;;;;;;12.10;6.40;;;27.00;58.20;;;;;;352677;28;1394;-56
2023/09/09 00:22:06;;;;;;;11.38;6.25;;;27.00;58.10;;;;;;352654;28;1102;-55
2023/09/09 00:22:17;;;;;;;11.57;6.18;;;27.00;58.10;;;;;;352668;28;1375;-56
2023/09/09 00:22:27;;;;;;;11.98;6.50;;;27.00;58.00;;;;;;352654;28;1029;-57
2023/09/09 00:22:38;;;;;;;11.43;6.37;;;27.00;58.00;;;;;;352655;28;1143;-55
2023/09/09 00:22:49;;;;;;;12.18;6.53;;;27.00;58.10;;;;;;352728;28;882;-56
2023/09/09 00:23:19;;;;;;;10.80;6.47;;;27.00;58.30;;;;;;352710;28;955;-56
2023/09/09 00:23:29;;;;;;;10.18;6.03;;;27.00;58.30;;;;;;352611;28;1142;-55
2023/09/09 00:23:40;;;;;;;11.05;6.10;;;27.00;57.90;;;;;;352680;28;1166;-56
2023/09/09 00:23:51;;;;;;;10.57;6.13;;;27.00;57.90;;;;;;352635;28;874;-56
2023/09/09 00:24:01;;;;;;;11.27;6.20;;;27.00;57.90;;;;;;352690;28;976;-56
2023/09/09 00:24:12;;;;;;;11.83;6.30;;;27.00;57.80;;;;;;352690;28;1119;-56
2023/09/09 00:24:23;;;;;;;11.93;6.10;;;27.00;57.70;;;;;;352631;28;1110;-56
2023/09/09 00:24:33;;;;;;;10.50;6.00;;;27.00;57.70;;;;;;352502;28;1186;-56
2023/09/09 00:24:44;;;;;;;12.60;5.90;;;27.00;57.60;;;;;;352651;28;1391;-56
2023/09/09 00:24:55;;;;;;;12.88;6.25;;;27.00;57.30;;;;;;352690;28;1086;-55
2023/09/09 00:25:06;;;;;;;13.23;6.03;;;26.90;56.80;;;;;;352665;28;888;-56
2023/09/09 00:25:17;;;;;;;10.88;5.95;;;27.00;56.70;;;;;;352571;28;1082;-55
2023/09/09 00:25:29;;;;;;;10.93;5.97;;;26.90;56.70;;;;;;352683;28;960;-56
2023/09/09 00:25:43;;;;;;;13.23;6.65;;;26.90;56.80;;;;;;352655;28;1062;-56
2023/09/09 00:25:54;;;;;;;13.18;6.85;;;26.90;56.90;;;;;;352637;28;1397;-57
2023/09/09 00:26:05;;;;;;;11.15;6.53;;;26.90;57.00;;;;;;352642;28;864;-56
2023/09/09 00:26:15;;;;;;;10.70;6.35;;;27.00;57.10;;;;;;352716;28;804;-56
2023/09/09 00:26:28;;;;;;;10.68;6.22;;;27.00;57.10;;;;;;352619;28;1102;-56
2023/09/09 00:26:39;;;;;;;11.52;5.82;;;26.90;57.00;;;;;;352659;28;1126;-56
2023/09/09 00:26:49;;;;;;;13.95;5.65;;;26.90;57.00;;;;;;352618;28;998;-56
2023/09/09 00:27:00;;;;;;;14.75;5.95;;;26.90;57.10;;;;;;352635;28;1122;-55
2023/09/09 00:27:11;;;;;;;12.83;6.17;;;26.90;57.30;;;;;;352653;28;1102;-56
2023/09/09 00:27:21;;;;;;;10.95;6.55;;;26.90;57.70;;;;;;352746;28;859;-55
2023/09/09 00:27:32;;;;;;;11.20;6.53;;;27.00;58.00;;;;;;352559;28;1602;-56
2023/09/09 00:27:43;;;;;;;11.30;6.40;;;26.90;58.40;;;;;;352574;28;1185;-55
2023/09/09 00:27:54;;;;;;;12.93;6.53;;;27.00;58.40;;;;;;352655;28;1432;-55
2023/09/09 00:28:06;;;;;;;12.85;6.57;;;26.90;58.30;;;;;;352614;28;899;-55
2023/09/09 00:28:17;;;;;;;12.13;6.45;;;26.90;58.40;;;;;;352611;28;1205;-56
2023/09/09 00:28:27;;;;;;;12.32;6.30;;;26.90;58.30;;;;;;352675;28;1002;-56
2023/09/09 00:28:38;;;;;;;13.80;6.30;;;26.90;58.20;;;;;;352615;28;1232;-56
2023/09/09 00:28:49;;;;;;;13.52;6.50;;;26.90;58.20;;;;;;352716;28;1047;-56
2023/09/09 00:28:59;;;;;;;11.13;6.43;;;27.00;58.10;;;;;;352740;28;857;-56
2023/09/09 00:29:10;;;;;;;9.57;6.40;;;26.90;58.00;;;;;;352568;28;1021;-56
2023/09/09 00:29:21;;;;;;;11.32;6.40;;;26.90;57.90;;;;;;352716;28;972;-56
2023/09/09 00:29:33;;;;;;;11.93;6.18;;;26.90;57.80;;;;;;352697;28;840;-57
2023/09/09 00:29:44;;;;;;;11.98;6.10;;;27.00;57.80;;;;;;352603;28;1023;-57
2023/09/09 00:29:54;;;;;;;10.73;6.27;;;26.90;58.00;;;;;;352647;28;1110;-55
2023/09/09 00:30:06;;;;;;;12.18;6.72;;;26.90;58.10;;;;;;352665;28;1011;-56
2023/09/09 00:30:17;;;;;;;11.43;6.70;;;26.90;58.10;;;;;;352443;28;1503;-55
2023/09/09 00:30:28;;;;;;;10.82;6.85;;;26.90;58.20;;;;;;352496;28;1015;-56
2023/09/09 00:30:39;;;;;;;11.60;7.28;;;26.90;58.30;;;;;;352591;28;916;-56
2023/09/09 00:30:50;;;;;;;13.63;7.20;;;26.90;58.40;;;;;;352494;28;921;-56
2023/09/09 00:31:01;;;;;;;13.30;6.75;;;26.90;58.30;;;;;;352519;28;1014;-56
2023/09/09 00:31:12;;;;;;;13.68;6.22;;;26.90;57.50;;;;;;352572;28;959;-56
2023/09/09 00:31:22;;;;;;;10.97;6.00;;;26.90;57.20;;;;;;352525;28;963;-56
2023/09/09 00:31:33;;;;;;;10.80;6.00;;;26.90;57.10;;;;;;352595;28;1023;-56
2023/09/09 00:31:44;;;;;;;11.15;6.15;;;26.90;57.00;;;;;;352522;28;1095;-55
2023/09/09 00:31:55;;;;;;;10.98;6.25;;;26.90;57.00;;;;;;352518;28;991;-55
2023/09/09 00:32:05;;;;;;;9.98;6.15;;;26.90;57.20;;;;;;352520;28;1147;-56
2023/09/09 00:32:16;;;;;;;8.73;6.07;;;26.90;57.30;;;;;;352611;28;1509;-56
2023/09/09 00:32:27;;;;;;;9.73;6.13;;;26.90;57.50;;;;;;352668;28;1035;-57
2023/09/09 00:32:38;;;;;;;11.95;6.45;;;26.90;57.60;;;;;;352405;28;1210;-56
2023/09/09 00:32:48;;;;;;;12.63;6.70;;;26.90;57.70;;;;;;352707;28;944;-56
2023/09/09 00:32:59;;;;;;;12.95;6.90;;;26.90;57.90;;;;;;352579;28;1094;-59
2023/09/09 00:33:10;;;;;;;12.40;6.88;;;26.90;58.10;;;;;;352634;28;1114;-55
2023/09/09 00:33:21;;;;;;;11.30;6.50;;;26.90;58.20;;;;;;352547;28;1440;-56
2023/09/09 00:33:32;;;;;;;12.90;6.60;;;26.90;58.20;;;;;;352616;28;1304;-56
2023/09/09 00:33:42;;;;;;;14.02;6.60;;;26.90;58.20;;;;;;352633;28;1560;-56
2023/09/09 00:33:53;;;;;;;14.33;6.73;;;26.90;58.20;;;;;;352680;28;1074;-55
2023/09/09 00:34:04;;;;;;;12.43;6.53;;;26.90;58.30;;;;;;352573;28;1103;-55
2023/09/09 00:34:14;;;;;;;13.05;6.53;;;26.90;58.40;;;;;;352652;28;1141;-56
2023/09/09 00:34:25;;;;;;;12.53;6.47;;;26.90;58.60;;;;;;352659;28;1174;-55
2023/09/09 00:34:36;;;;;;;12.07;6.50;;;26.90;58.70;;;;;;352675;28;1813;-56
2023/09/09 00:34:47;;;;;;;10.40;6.38;;;26.90;58.80;;;;;;352638;28;1022;-56
2023/09/09 00:34:57;;;;;;;13.07;6.70;;;26.80;58.60;;;;;;352548;28;1114;-55
2023/09/09 00:35:08;;;;;;;14.77;6.90;;;26.90;58.70;;;;;;352680;28;851;-56
2023/09/09 00:35:19;;;;;;;14.13;6.80;;;26.90;58.60;;;;;;352687;28;1063;-55
2023/09/09 00:35:32;;;;;;;11.10;6.40;;;26.90;58.60;;;;;;352543;28;1610;-56
2023/09/09 00:35:43;;;;;;;10.85;6.22;;;26.90;58.80;;;;;;352442;28;1948;-55
2023/09/09 00:35:54;;;;;;;10.25;6.45;;;26.90;58.90;;;;;;352689;28;925;-56
2023/09/09 00:36:04;;;;;;;9.85;6.70;;;26.90;58.90;;;;;;352656;28;979;-57
2023/09/09 00:36:15;;;;;;;9.63;6.50;;;26.90;58.80;;;;;;352678;28;1094;-56
2023/09/09 00:36:26;;;;;;;10.30;6.37;;;26.90;58.80;;;;;;352561;28;1083;-56
2023/09/09 00:36:36;;;;;;;10.23;6.20;;;26.90;58.80;;;;;;352715;28;838;-56
2023/09/09 00:36:47;;;;;;;11.48;6.65;;;26.90;58.70;;;;;;352676;28;928;-55
2023/09/09 00:36:58;;;;;;;11.93;6.87;;;26.90;58.70;;;;;;352720;28;888;-55
2023/09/09 00:37:09;;;;;;;12.30;7.33;;;26.90;58.70;;;;;;352700;28;1019;-55
2023/09/09 00:37:19;;;;;;;11.73;7.20;;;26.90;58.70;;;;;;352537;28;1035;-56
2023/09/09 00:37:30;;;;;;;11.25;7.05;;;26.90;58.60;;;;;;352660;28;1023;-55
2023/09/09 00:37:41;;;;;;;11.60;6.83;;;26.80;58.50;;;;;;352642;28;1038;-57
2023/09/09 00:37:51;;;;;;;11.85;7.05;;;26.90;58.60;;;;;;352688;28;1852;-55
2023/09/09 00:38:02;;;;;;;12.85;6.85;;;26.90;58.50;;;;;;352555;28;1048;-57
2023/09/09 00:38:13;;;;;;;13.68;7.15;;;26.80;58.50;;;;;;352696;28;1031;-56
2023/09/09 00:38:24;;;;;;;14.45;6.75;;;26.90;58.50;;;;;;352601;28;959;-56
2023/09/09 00:38:35;;;;;;;13.80;6.72;;;26.90;58.60;;;;;;352614;28;1067;-56
2023/09/09 00:38:46;;;;;;;12.83;6.60;;;26.80;58.60;;;;;;352611;28;925;-56
2023/09/09 00:38:56;;;;;;;12.55;7.18;;;26.90;58.70;;;;;;352651;28;1885;-54
2023/09/09 00:39:08;;;;;;;12.40;7.22;;;26.80;58.80;;;;;;352598;28;1154;-55
2023/09/09 00:39:18;;;;;;;13.10;7.00;;;26.80;59.00;;;;;;352615;28;1342;-55
2023/09/09 00:39:30;;;;;;;12.45;6.63;;;26.80;59.10;;;;;;352564;28;1447;-55
2023/09/09 00:39:41;;;;;;;14.52;7.00;;;26.80;59.10;;;;;;352604;28;1134;-56
2023/09/09 00:39:52;;;;;;;13.70;6.97;;;26.80;59.00;;;;;;352722;28;809;-55
2023/09/09 00:40:04;;;;;;;12.77;7.03;;;26.80;59.10;;;;;;352699;28;825;-57
2023/09/09 00:40:15;;;;;;;11.12;7.14;;;26.90;59.20;;;;;;352595;28;1825;-56
2023/09/09 00:40:25;;;;;;;12.33;7.00;;;26.80;59.00;;;;;;352659;28;1011;-56
2023/09/09 00:40:36;;;;;;;13.25;7.10;;;26.80;58.90;;;;;;352661;28;1906;-56
2023/09/09 00:41:13;;;;;;;12.93;6.75;;;26.80;58.60;;;;;;352661;28;944;-59
2023/09/09 00:41:24;;;;;;;15.57;6.82;;;26.80;58.40;;;;;;352604;28;2046;-56
2023/09/09 00:41:35;;;;;;;13.15;6.80;;;26.80;58.60;;;;;;352566;28;1119;-56
2023/09/09 00:41:45;;;;;;;12.82;7.05;;;26.80;58.70;;;;;;352679;28;820;-57
2023/09/09 00:41:56;;;;;;;13.07;7.10;;;26.80;58.80;;;;;;352695;28;967;-56
2023/09/09 00:42:07;;;;;;;13.60;7.07;;;26.80;58.80;;;;;;352636;28;1047;-56
2023/09/09 00:42:17;;;;;;;13.40;6.65;;;26.80;58.50;;;;;;352540;28;1464;-55
2023/09/09 00:42:28;;;;;;;11.73;6.37;;;26.80;57.60;;;;;;352628;28;897;-55
2023/09/09 00:42:39;;;;;;;12.10;6.60;;;26.80;57.50;;;;;;352690;28;994;-55
2023/09/09 00:42:50;;;;;;;10.50;6.55;;;26.80;57.80;;;;;;352576;28;1109;-56
2023/09/09 00:43:00;;;;;;;10.60;6.53;;;26.70;58.00;;;;;;352685;28;835;-55
2023/09/09 00:43:11;;;;;;;10.20;6.07;;;26.80;58.20;;;;;;352633;28;1086;-58
2023/09/09 00:43:22;;;;;;;10.48;6.28;;;26.80;58.20;;;;;;352523;28;1157;-56
2023/09/09 00:43:32;;;;;;;10.35;6.43;;;26.80;58.00;;;;;;352686;28;864;-57
2023/09/09 00:43:46;;;;;;;9.60;6.77;;;26.80;58.00;;;;;;352690;28;857;-55
2023/09/09 00:43:57;;;;;;;10.48;6.93;;;26.80;58.10;;;;;;352512;28;1113;-56
2023/09/09 00:44:09;;;;;;;10.53;6.63;;;26.70;58.40;;;;;;352628;28;2179;-55
2023/09/09 00:44:19;;;;;;;10.27;6.35;;;26.80;58.60;;;;;;352661;28;1112;-55
2023/09/09 00:44:30;;;;;;;10.98;6.38;;;26.80;58.70;;;;;;352556;28;1170;-55
2023/09/09 00:44:41;;;;;;;12.82;6.82;;;26.80;58.90;;;;;;352647;28;1836;-56
2023/09/09 00:44:52;;;;;;;13.57;7.10;;;26.80;58.90;;;;;;352610;28;1122;-57
2023/09/09 00:45:03;;;;;;;14.40;7.43;;;26.70;58.70;;;;;;352581;28;914;-57
2023/09/09 00:45:14;;;;;;;14.00;7.13;;;26.80;58.70;;;;;;352730;28;979;-55
2023/09/09 00:45:27;;;;;;;13.88;7.03;;;26.80;58.40;;;;;;352656;28;1102;-56
2023/09/09 00:45:39;;;;;;;11.20;6.63;;;26.70;58.50;;;;;;352599;28;1133;-56
2023/09/09 00:45:50;;;;;;;13.07;6.97;;;26.80;58.70;;;;;;352676;28;1007;-56
2023/09/09 00:46:00;;;;;;;14.38;7.07;;;26.80;58.90;;;;;;352641;28;836;-57
2023/09/09 00:46:13;;;;;;;15.48;7.35;;;26.80;59.00;;;;;;352544;28;1028;-56
2023/09/09 00:46:24;;;;;;;14.20;7.20;;;26.70;59.00;;;;;;352684;28;849;-56
2023/09/09 00:46:35;;;;;;;13.40;6.90;;;26.80;59.00;;;;;;352700;28;976;-56
2023/09/09 00:46:46;;;;;;;12.05;6.63;;;26.80;59.00;;;;;;352537;28;1015;-56
2023/09/09 00:46:57;;;;;;;9.90;6.53;;;26.70;58.90;;;;;;352624;28;1999;-56
2023/09/09 00:47:08;;;;;;;10.43;6.88;;;26.80;58.90;;;;;;352662;28;1109;-55
2023/09/09 00:47:19;;;;;;;9.48;7.00;;;26.70;58.90;;;;;;352643;28;1078;-55
2023/09/09 00:47:31;;;;;;;10.73;7.43;;;26.70;59.00;;;;;;352694;28;820;-56
2023/09/09 00:47:42;;;;;;;12.85;7.55;;;26.80;59.10;;;;;;352516;28;1495;-56
2023/09/09 00:47:52;;;;;;;13.43;7.45;;;26.70;59.10;;;;;;352658;28;1018;-56
2023/09/09 00:48:03;;;;;;;10.90;6.57;;;26.80;59.20;;;;;;352589;28;1324;-56
2023/09/09 00:48:14;;;;;;;10.82;7.03;;;26.80;59.20;;;;;;352661;28;1085;-56
2023/09/09 00:48:25;;;;;;;10.38;6.88;;;26.70;59.20;;;;;;352660;28;1043;-56
2023/09/09 00:48:39;;;;;;;11.27;7.05;;;26.70;59.20;;;;;;352575;28;988;-55
2023/09/09 00:48:50;;;;;;;12.30;7.10;;;26.70;59.10;;;;;;352647;28;845;-55
2023/09/09 00:49:03;;;;;;;12.20;7.38;;;26.80;59.20;;;;;;352639;28;972;-56
2023/09/09 00:49:14;;;;;;;12.27;8.05;;;26.70;59.10;;;;;;352701;28;915;-56
2023/09/09 00:49:24;;;;;;;12.63;7.90;;;26.70;59.10;;;;;;352565;28;1019;-56
2023/09/09 00:49:35;;;;;;;12.35;7.35;;;26.70;59.10;;;;;;352572;28;1110;-56
2023/09/09 00:49:46;;;;;;;10.77;6.85;;;26.80;59.10;;;;;;352599;28;1098;-56
2023/09/09 00:49:57;;;;;;;12.07;7.00;;;26.70;59.20;;;;;;352596;28;1003;-56
2023/09/09 00:50:11;;;;;;;12.98;6.88;;;26.70;59.10;;;;;;352642;28;1577;-55
2023/09/09 00:50:24;;;;;;;12.55;6.85;;;26.80;59.10;;;;;;352642;28;1061;-56
2023/09/09 00:50:34;;;;;;;13.35;7.50;;;26.70;59.20;;;;;;352649;28;915;-56
2023/09/09 00:50:45;;;;;;;12.30;7.57;;;26.80;59.20;;;;;;352633;28;1102;-55
2023/09/09 00:50:57;;;;;;;12.90;7.88;;;26.70;59.10;;;;;;352635;28;1034;-55
2023/09/09 00:51:12;;;;;;;12.77;7.72;;;26.80;59.20;;;;;;352563;28;887;-56
2023/09/09 00:51:23;;;;;;;12.00;7.50;;;26.70;59.20;;;;;;352591;28;1214;-55
2023/09/09 00:51:37;;;;;;;10.65;7.40;;;26.70;59.40;;;;;;352676;28;923;-55
2023/09/09 00:51:49;;;;;;;12.45;7.97;;;26.70;59.30;;;;;;352636;28;1086;-56
2023/09/09 00:52:00;;;;;;;13.73;8.82;;;26.70;59.20;;;;;;352534;28;1815;-56
2023/09/09 00:52:11;;;;;;;15.95;10.75;;;26.70;59.10;;;;;;352634;28;1220;-56
2023/09/09 00:52:21;;;;;;;21.48;15.90;;;26.70;59.10;;;;;;352631;28;1023;-56
2023/09/09 00:52:32;;;;;;;23.47;19.30;;;26.70;59.00;;;;;;352556;28;1496;-56
2023/09/09 00:52:44;;;;;;;23.40;19.20;;;26.70;59.00;;;;;;352604;28;1087;-55
2023/09/09 00:52:55;;;;;;;20.17;16.67;;;26.70;59.10;;;;;;352587;28;1037;-55
2023/09/09 00:53:06;;;;;;;18.88;15.27;;;26.70;59.00;;;;;;352618;28;1003;-57
2023/09/09 00:53:16;;;;;;;18.98;14.48;;;26.70;59.00;;;;;;352594;28;1063;-56
2023/09/09 00:53:27;;;;;;;18.17;13.07;;;26.70;59.00;;;;;;352573;28;1146;-55
2023/09/09 00:53:39;;;;;;;17.50;12.00;;;26.70;59.00;;;;;;352604;28;1006;-56
2023/09/09 00:53:49;;;;;;;17.45;11.82;;;26.70;59.10;;;;;;352625;28;1019;-56
2023/09/09 00:54:01;;;;;;;18.80;11.45;;;26.70;59.20;;;;;;352583;28;1078;-57
2023/09/09 00:54:11;;;;;;;16.88;10.40;;;26.70;59.30;;;;;;352623;28;844;-56
2023/09/09 00:54:23;;;;;;;14.65;9.32;;;26.70;59.20;;;;;;352580;28;1106;-56
2023/09/09 00:54:33;;;;;;;14.93;8.63;;;26.70;59.30;;;;;;352605;28;1023;-55
2023/09/09 00:54:44;;;;;;;15.57;8.10;;;26.70;59.30;;;;;;352568;28;898;-56
2023/09/09 00:54:55;;;;;;;13.48;7.40;;;26.70;59.20;;;;;;352663;28;904;-57
2023/09/09 00:55:07;;;;;;;11.52;6.82;;;26.70;58.90;;;;;;352521;28;1007;-55
2023/09/09 00:55:18;;;;;;;11.30;6.80;;;26.70;58.90;;;;;;352643;28;896;-56
2023/09/09 00:55:30;;;;;;;12.23;6.93;;;26.70;58.80;;;;;;352584;27;968;-55
2023/09/09 00:55:43;;;;;;;13.32;7.00;;;26.70;58.80;;;;;;352608;28;1915;-56
2023/09/09 00:55:54;;;;;;;14.77;7.05;;;26.70;58.90;;;;;;352546;28;1874;-56
2023/09/09 00:56:06;;;;;;;14.18;7.10;;;26.70;59.10;;;;;;352537;28;1492;-55
2023/09/09 00:56:17;;;;;;;14.20;7.03;;;26.70;59.30;;;;;;352588;28;1053;-56
2023/09/09 00:56:28;;;;;;;14.37;6.83;;;26.70;59.30;;;;;;352603;28;1086;-57
2023/09/09 00:56:38;;;;;;;14.77;6.85;;;26.70;59.30;;;;;;352618;28;1032;-57
2023/09/09 00:56:50;;;;;;;14.82;7.43;;;26.70;59.40;;;;;;352632;28;966;-56
2023/09/09 00:57:04;;;;;;;13.52;7.35;;;26.70;59.40;;;;;;352499;28;1122;-56
2023/09/09 00:57:17;;;;;;;12.75;7.15;;;26.70;58.90;;;;;;352561;28;1494;-56
2023/09/09 00:57:27;;;;;;;12.05;6.47;;;26.70;59.00;;;;;;352640;28;968;-56
2023/09/09 00:57:38;;;;;;;14.02;6.78;;;26.70;59.10;;;;;;352602;28;1075;-56
2023/09/09 00:57:49;;;;;;;14.45;6.90;;;26.70;59.00;;;;;;352599;28;933;-56
2023/09/09 00:57:59;;;;;;;12.57;6.90;;;26.70;58.80;;;;;;352591;28;1095;-56
2023/09/09 00:58:10;;;;;;;9.57;6.60;;;26.70;58.70;;;;;;352628;28;947;-55
2023/09/09 00:58:23;;;;;;;10.82;6.85;;;26.70;58.70;;;;;;352589;28;1126;-55
2023/09/09 00:58:33;;;;;;;11.90;6.85;;;26.70;58.70;;;;;;352657;28;1263;-55
2023/09/09 00:58:44;;;;;;;11.88;6.60;;;26.70;58.50;;;;;;352533;28;925;-55
2023/09/09 00:58:55;;;;;;;11.35;6.38;;;26.70;58.50;;;;;;352582;28;1004;-55
2023/09/09 00:59:05;;;;;;;9.75;6.40;;;26.70;58.40;;;;;;352636;28;1824;-55
2023/09/09 00:59:16;;;;;;;9.73;6.40;;;26.70;58.40;;;;;;352644;28;999;-56
2023/09/09 00:59:27;;;;;;;10.18;6.38;;;26.70;58.30;;;;;;352576;28;1414;-56
2023/09/09 00:59:38;;;;;;;11.55;6.43;;;26.70;58.00;;;;;;352589;28;906;-56
2023/09/09 00:59:49;;;;;;;12.23;6.25;;;26.70;57.90;;;;;;352627;28;1046;-55
2023/09/09 01:00:03;;;;;;;12.07;6.10;;;26.70;57.90;;;;;;352645;28;982;-55